sensor_id;sensor_type;location;lat;lon;timestamp;pressure;altitude;pressure_sealevel;temperature;humidity
38780;BME280;29273;49.962;9.768;2023-08-31T00:00:10;99105.91;;;16.25;67.19
38780;BME280;29273;49.962;9.768;2023-08-31T00:02:38;99111.50;;;16.23;66.99
38780;BME280;29273;49.962;9.768;2023-08-31T00:05:04;99106.66;;;16.20;66.68
38780;BME280;29273;49.962;9.768;2023-08-31T00:07:30;99107.25;;;16.22;66.43
38780;BME280;29273;49.962;9.768;2023-08-31T00:09:57;99103.75;;;16.22;66.32
38780;BME280;29273;49.962;9.768;2023-08-31T00:12:23;99108.28;;;16.21;66.18
38780;BME280;29273;49.962;9.768;2023-08-31T00:14:52;99102.44;;;16.24;66.45
38780;BME280;29273;49.962;9.768;2023-08-31T00:17:18;99097.06;;;16.19;66.21
38780;BME280;29273;49.962;9.768;2023-08-31T00:19:43;99102.66;;;16.18;65.65
38780;BME280;29273;49.962;9.768;2023-08-31T00:22:09;99097.56;;;16.16;66.54
38780;BME280;29273;49.962;9.768;2023-08-31T00:24:35;99092.47;;;16.15;66.82
38780;BME280;29273;49.962;9.768;2023-08-31T00:27:03;99105.59;;;16.16;66.66
38780;BME280;29273;49.962;9.768;2023-08-31T00:29:29;99109.31;;;16.15;66.28
38780;BME280;29273;49.962;9.768;2023-08-31T00:31:55;99106.09;;;16.13;66.11
38780;BME280;29273;49.962;9.768;2023-08-31T00:34:21;99102.63;;;16.13;65.64
38780;BME280;29273;49.962;9.768;2023-08-31T00:36:47;99109.00;;;16.12;65.60
38780;BME280;29273;49.962;9.768;2023-08-31T00:39:14;99112.19;;;16.08;65.44
38780;BME280;29273;49.962;9.768;2023-08-31T00:41:40;99108.97;;;16.06;65.67
38780;BME280;29273;49.962;9.768;2023-08-31T00:44:05;99108.19;;;16.06;66.41
38780;BME280;29273;49.962;9.768;2023-08-31T00:46:34;99113.00;;;16.09;66.20
38780;BME280;29273;49.962;9.768;2023-08-31T00:49:00;99116.44;;;16.04;66.13
38780;BME280;29273;49.962;9.768;2023-08-31T00:51:26;99118.31;;;16.04;66.60
38780;BME280;29273;49.962;9.768;2023-08-31T00:53:52;99122.59;;;16.05;66.90
38780;BME280;29273;49.962;9.768;2023-08-31T00:56:20;99119.66;;;16.06;67.32
38780;BME280;29273;49.962;9.768;2023-08-31T00:58:46;99122.06;;;16.08;67.49
38780;BME280;29273;49.962;9.768;2023-08-31T01:01:21;99124.53;;;16.15;67.35
38780;BME280;29273;49.962;9.768;2023-08-31T01:03:54;99126.16;;;16.16;67.28
38780;BME280;29273;49.962;9.768;2023-08-31T01:07:00;99129.09;;;16.14;67.36
38780;BME280;29273;49.962;9.768;2023-08-31T01:15:11;99142.22;;;16.21;68.02
38780;BME280;29273;49.962;9.768;2023-08-31T01:17:40;99140.09;;;16.23;68.06
38780;BME280;29273;49.962;9.768;2023-08-31T01:20:10;99129.66;;;16.21;68.21
38780;BME280;29273;49.962;9.768;2023-08-31T01:23:00;99136.91;;;16.26;67.93
38780;BME280;29273;49.962;9.768;2023-08-31T01:25:29;99135.88;;;16.27;67.95
38780;BME280;29273;49.962;9.768;2023-08-31T01:27:56;99132.38;;;16.26;67.89
38780;BME280;29273;49.962;9.768;2023-08-31T01:30:23;99132.13;;;16.28;67.60
38780;BME280;29273;49.962;9.768;2023-08-31T01:32:50;99142.81;;;16.28;67.25
38780;BME280;29273;49.962;9.768;2023-08-31T01:35:18;99138.00;;;16.30;67.03
38780;BME280;29273;49.962;9.768;2023-08-31T01:37:51;99142.81;;;16.28;67.23
38780;BME280;29273;49.962;9.768;2023-08-31T01:40:48;99142.00;;;16.27;67.67
38780;BME280;29273;49.962;9.768;2023-08-31T01:43:13;99143.03;;;16.21;67.35
38780;BME280;29273;49.962;9.768;2023-08-31T01:45:39;99138.47;;;16.22;67.88
38780;BME280;29273;49.962;9.768;2023-08-31T01:48:06;99136.88;;;16.21;67.93
38780;BME280;29273;49.962;9.768;2023-08-31T01:50:31;99140.34;;;16.21;67.95
38780;BME280;29273;49.962;9.768;2023-08-31T01:52:57;99142.22;;;16.21;67.81
38780;BME280;29273;49.962;9.768;2023-08-31T01:55:24;99139.56;;;16.21;67.66
38780;BME280;29273;49.962;9.768;2023-08-31T01:57:49;99141.69;;;16.19;67.94
38780;BME280;29273;49.962;9.768;2023-08-31T02:00:24;99144.59;;;16.17;67.87
38780;BME280;29273;49.962;9.768;2023-08-31T02:02:50;99154.22;;;16.18;68.32
38780;BME280;29273;49.962;9.768;2023-08-31T02:05:16;99154.22;;;16.18;68.04
38780;BME280;29273;49.962;9.768;2023-08-31T02:07:41;99156.63;;;16.20;67.74
38780;BME280;29273;49.962;9.768;2023-08-31T02:10:07;99159.31;;;16.20;67.64
38780;BME280;29273;49.962;9.768;2023-08-31T02:12:34;99165.44;;;16.20;67.58
38780;BME280;29273;49.962;9.768;2023-08-31T02:15:01;99164.66;;;16.20;67.71
38780;BME280;29273;49.962;9.768;2023-08-31T02:17:27;99160.38;;;16.19;68.36
38780;BME280;29273;49.962;9.768;2023-08-31T02:19:52;99163.34;;;16.22;68.27
38780;BME280;29273;49.962;9.768;2023-08-31T02:22:18;99168.44;;;16.24;68.42
38780;BME280;29273;49.962;9.768;2023-08-31T02:24:45;99163.63;;;16.26;68.50
38780;BME280;29273;49.962;9.768;2023-08-31T02:27:11;99155.63;;;16.26;68.94
38780;BME280;29273;49.962;9.768;2023-08-31T02:29:36;99165.81;;;16.29;68.93
38780;BME280;29273;49.962;9.768;2023-08-31T02:32:05;99158.34;;;16.31;68.56
38780;BME280;29273;49.962;9.768;2023-08-31T02:34:30;99155.91;;;16.30;68.50
38780;BME280;29273;49.962;9.768;2023-08-31T02:36:56;99156.72;;;16.30;68.59
38780;BME280;29273;49.962;9.768;2023-08-31T02:39:21;99161.25;;;16.30;68.12
38780;BME280;29273;49.962;9.768;2023-08-31T02:41:47;99158.84;;;16.28;68.41
38780;BME280;29273;49.962;9.768;2023-08-31T02:44:12;99164.44;;;16.26;67.80
38780;BME280;29273;49.962;9.768;2023-08-31T02:46:38;99166.31;;;16.26;67.93
38780;BME280;29273;49.962;9.768;2023-08-31T02:49:04;99173.53;;;16.25;67.90
38780;BME280;29273;49.962;9.768;2023-08-31T02:51:30;99178.03;;;16.25;67.69
38780;BME280;29273;49.962;9.768;2023-08-31T02:53:55;99172.94;;;16.23;67.84
38780;BME280;29273;49.962;9.768;2023-08-31T02:56:21;99161.97;;;16.20;67.75
38780;BME280;29273;49.962;9.768;2023-08-31T02:58:46;99170.25;;;16.18;67.68
38780;BME280;29273;49.962;9.768;2023-08-31T03:01:13;99170.25;;;16.18;67.39
38780;BME280;29273;49.962;9.768;2023-08-31T03:03:43;99166.72;;;16.13;67.45
38780;BME280;29273;49.962;9.768;2023-08-31T03:06:11;99171.53;;;16.11;67.17
38780;BME280;29273;49.962;9.768;2023-08-31T03:08:37;99175.50;;;16.08;67.48
38780;BME280;29273;49.962;9.768;2023-08-31T03:11:04;99166.69;;;16.07;68.05
38780;BME280;29273;49.962;9.768;2023-08-31T03:13:33;99169.09;;;16.09;68.17
38780;BME280;29273;49.962;9.768;2023-08-31T03:15:59;99171.72;;;16.04;68.06
38780;BME280;29273;49.962;9.768;2023-08-31T03:18:26;99170.09;;;16.03;68.14
38780;BME280;29273;49.962;9.768;2023-08-31T03:20:52;99173.56;;;16.03;68.57
38780;BME280;29273;49.962;9.768;2023-08-31T03:23:17;99181.34;;;16.05;68.66
38780;BME280;29273;49.962;9.768;2023-08-31T03:25:43;99178.66;;;16.05;68.28
38780;BME280;29273;49.962;9.768;2023-08-31T03:28:08;99186.69;;;16.05;68.20
38780;BME280;29273;49.962;9.768;2023-08-31T03:30:35;99186.44;;;16.06;68.15
38780;BME280;29273;49.962;9.768;2023-08-31T03:33:01;99184.00;;;16.05;67.94
38780;BME280;29273;49.962;9.768;2023-08-31T03:35:28;99186.69;;;16.05;68.12
38780;BME280;29273;49.962;9.768;2023-08-31T03:37:55;99180.53;;;16.04;67.81
38780;BME280;29273;49.962;9.768;2023-08-31T03:40:21;99178.38;;;16.01;67.51
38780;BME280;29273;49.962;9.768;2023-08-31T03:42:49;99183.16;;;15.99;67.46
38780;BME280;29273;49.962;9.768;2023-08-31T03:45:15;99180.75;;;15.98;67.33
38780;BME280;29273;49.962;9.768;2023-08-31T03:47:41;99182.28;;;15.94;66.94
38780;BME280;29273;49.962;9.768;2023-08-31T03:50:07;99186.84;;;15.93;67.50
38780;BME280;29273;49.962;9.768;2023-08-31T03:52:32;99190.84;;;15.90;67.66
38780;BME280;29273;49.962;9.768;2023-08-31T03:54:58;99193.75;;;15.89;67.46
38780;BME280;29273;49.962;9.768;2023-08-31T03:57:23;99199.34;;;15.87;67.53
38780;BME280;29273;49.962;9.768;2023-08-31T03:59:51;99194.50;;;15.84;67.51
38780;BME280;29273;49.962;9.768;2023-08-31T04:02:16;99199.03;;;15.84;67.45
38780;BME280;29273;49.962;9.768;2023-08-31T04:04:42;99202.75;;;15.83;67.43
38780;BME280;29273;49.962;9.768;2023-08-31T04:07:07;99204.88;;;15.81;67.74
38780;BME280;29273;49.962;9.768;2023-08-31T04:09:33;99210.22;;;15.81;67.12
38780;BME280;29273;49.962;9.768;2023-08-31T04:11:58;99213.94;;;15.80;67.75
38780;BME280;29273;49.962;9.768;2023-08-31T04:14:27;99219.56;;;15.83;67.93
38780;BME280;29273;49.962;9.768;2023-08-31T04:16:56;99221.16;;;15.79;67.53
38780;BME280;29273;49.962;9.768;2023-08-31T04:19:22;99224.84;;;15.78;67.64
38780;BME280;29273;49.962;9.768;2023-08-31T04:21:48;99241.72;;;15.79;67.56
38780;BME280;29273;49.962;9.768;2023-08-31T04:24:13;99231.81;;;15.79;67.89
38780;BME280;29273;49.962;9.768;2023-08-31T04:26:39;99236.09;;;15.80;67.82
38780;BME280;29273;49.962;9.768;2023-08-31T04:29:04;99238.75;;;15.80;67.89
38780;BME280;29273;49.962;9.768;2023-08-31T04:31:33;99246.53;;;15.82;67.80
38780;BME280;29273;49.962;9.768;2023-08-31T04:33:58;99244.09;;;15.80;68.29
38780;BME280;29273;49.962;9.768;2023-08-31T04:36:24;99254.53;;;15.82;68.52
38780;BME280;29273;49.962;9.768;2023-08-31T04:38:51;99245.47;;;15.83;68.35
38780;BME280;29273;49.962;9.768;2023-08-31T04:41:17;99254.28;;;15.83;68.49
38780;BME280;29273;49.962;9.768;2023-08-31T04:43:42;99251.63;;;15.83;68.24
38780;BME280;29273;49.962;9.768;2023-08-31T04:46:08;99244.44;;;15.84;68.16
38780;BME280;29273;49.962;9.768;2023-08-31T04:48:33;99246.03;;;15.85;68.46
38780;BME280;29273;49.962;9.768;2023-08-31T04:50:59;99248.69;;;15.85;68.40
38780;BME280;29273;49.962;9.768;2023-08-31T04:53:25;99248.19;;;15.88;68.49
38780;BME280;29273;49.962;9.768;2023-08-31T04:55:50;99245.28;;;15.89;68.77
38780;BME280;29273;49.962;9.768;2023-08-31T04:58:16;99232.97;;;15.88;68.93
38780;BME280;29273;49.962;9.768;2023-08-31T05:00:42;99243.16;;;15.91;69.10
38780;BME280;29273;49.962;9.768;2023-08-31T05:03:09;99245.59;;;15.93;68.97
38780;BME280;29273;49.962;9.768;2023-08-31T05:05:35;99249.06;;;15.94;68.76
38780;BME280;29273;49.962;9.768;2023-08-31T05:08:00;99251.47;;;15.95;69.07
38780;BME280;29273;49.962;9.768;2023-08-31T05:10:26;99248.00;;;15.95;68.81
38780;BME280;29273;49.962;9.768;2023-08-31T05:12:51;99259.72;;;15.94;68.70
38780;BME280;29273;49.962;9.768;2023-08-31T05:15:17;99270.16;;;15.95;68.33
38780;BME280;29273;49.962;9.768;2023-08-31T05:17:42;99276.59;;;15.94;68.24
38780;BME280;29273;49.962;9.768;2023-08-31T05:20:08;99276.34;;;15.96;68.64
38780;BME280;29273;49.962;9.768;2023-08-31T05:22:35;99277.13;;;15.96;68.78
38780;BME280;29273;49.962;9.768;2023-08-31T05:25:01;99280.34;;;15.98;68.39
38780;BME280;29273;49.962;9.768;2023-08-31T05:27:26;99283.84;;;15.99;68.74
38780;BME280;29273;49.962;9.768;2023-08-31T05:29:52;99288.91;;;16.00;68.90
38780;BME280;29273;49.962;9.768;2023-08-31T05:32:17;99285.19;;;16.01;68.79
38780;BME280;29273;49.962;9.768;2023-08-31T05:34:43;99289.50;;;16.02;69.11
38780;BME280;29273;49.962;9.768;2023-08-31T05:37:08;99288.19;;;16.05;69.57
38780;BME280;29273;49.962;9.768;2023-08-31T05:39:34;99288.47;;;16.08;70.09
38780;BME280;29273;49.962;9.768;2023-08-31T05:42:00;99289.84;;;16.11;69.97
38780;BME280;29273;49.962;9.768;2023-08-31T05:44:26;99296.03;;;16.17;70.09
38780;BME280;29273;49.962;9.768;2023-08-31T05:46:51;99295.53;;;16.20;69.55
38780;BME280;29273;49.962;9.768;2023-08-31T05:49:16;99291.59;;;16.22;69.08
38780;BME280;29273;49.962;9.768;2023-08-31T05:51:42;99291.88;;;16.26;68.88
38780;BME280;29273;49.962;9.768;2023-08-31T05:54:07;99296.97;;;16.27;69.28
38780;BME280;29273;49.962;9.768;2023-08-31T05:56:37;99301.00;;;16.30;68.91
38780;BME280;29273;49.962;9.768;2023-08-31T05:59:05;99298.31;;;16.30;69.06
38780;BME280;29273;49.962;9.768;2023-08-31T06:01:31;99301.25;;;16.28;68.55
38780;BME280;29273;49.962;9.768;2023-08-31T06:03:56;99303.91;;;16.28;68.15
38780;BME280;29273;49.962;9.768;2023-08-31T06:06:22;99314.59;;;16.28;68.31
38780;BME280;29273;49.962;9.768;2023-08-31T06:08:47;99308.72;;;16.26;68.17
38780;BME280;29273;49.962;9.768;2023-08-31T06:11:13;99306.88;;;16.27;68.39
38780;BME280;29273;49.962;9.768;2023-08-31T06:13:39;99304.44;;;16.25;68.31
38780;BME280;29273;49.962;9.768;2023-08-31T06:16:05;99316.72;;;16.26;68.46
38780;BME280;29273;49.962;9.768;2023-08-31T06:18:31;99313.50;;;16.24;68.63
38780;BME280;29273;49.962;9.768;2023-08-31T06:20:56;99325.00;;;16.25;68.54
38780;BME280;29273;49.962;9.768;2023-08-31T06:23:21;99328.47;;;16.25;68.68
38780;BME280;29273;49.962;9.768;2023-08-31T06:25:47;99328.47;;;16.25;68.82
38780;BME280;29273;49.962;9.768;2023-08-31T06:28:13;99325.56;;;16.27;68.07
38780;BME280;29273;49.962;9.768;2023-08-31T06:30:38;99327.41;;;16.26;67.96
38780;BME280;29273;49.962;9.768;2023-08-31T06:33:04;99332.50;;;16.28;68.46
38780;BME280;29273;49.962;9.768;2023-08-31T06:35:30;99326.91;;;16.30;69.31
38780;BME280;29273;49.962;9.768;2023-08-31T06:37:56;99331.22;;;16.31;69.04
38780;BME280;29273;49.962;9.768;2023-08-31T06:40:24;99330.44;;;16.35;68.79
38780;BME280;29273;49.962;9.768;2023-08-31T06:42:50;99333.38;;;16.34;68.21
38780;BME280;29273;49.962;9.768;2023-08-31T06:45:15;99340.56;;;16.33;68.09
38780;BME280;29273;49.962;9.768;2023-08-31T06:47:41;99332.31;;;16.35;68.36
38780;BME280;29273;49.962;9.768;2023-08-31T06:50:07;99334.72;;;16.36;68.33
38780;BME280;29273;49.962;9.768;2023-08-31T06:52:32;99329.69;;;16.40;69.17
38780;BME280;29273;49.962;9.768;2023-08-31T06:54:59;99339.59;;;16.39;68.26
38780;BME280;29273;49.962;9.768;2023-08-31T06:57:26;99347.09;;;16.42;67.74
38780;BME280;29273;49.962;9.768;2023-08-31T06:59:51;99348.69;;;16.43;66.39
38780;BME280;29273;49.962;9.768;2023-08-31T07:02:17;99357.78;;;16.42;66.07
38780;BME280;29273;49.962;9.768;2023-08-31T07:04:44;99352.75;;;16.46;66.04
38780;BME280;29273;49.962;9.768;2023-08-31T07:07:10;99355.97;;;16.48;67.00
38780;BME280;29273;49.962;9.768;2023-08-31T07:09:36;99360.81;;;16.51;67.21
38780;BME280;29273;49.962;9.768;2023-08-31T07:12:01;99361.63;;;16.52;66.49
38780;BME280;29273;49.962;9.768;2023-08-31T07:14:27;99360.06;;;16.56;66.27
38780;BME280;29273;49.962;9.768;2023-08-31T07:16:53;99363.03;;;16.59;66.70
38780;BME280;29273;49.962;9.768;2023-08-31T07:19:18;99362.53;;;16.62;66.62
38780;BME280;29273;49.962;9.768;2023-08-31T07:21:44;99361.53;;;16.69;66.71
38780;BME280;29273;49.962;9.768;2023-08-31T07:24:09;99362.38;;;16.74;66.39
38780;BME280;29273;49.962;9.768;2023-08-31T07:26:35;99358.97;;;16.79;65.59
38780;BME280;29273;49.962;9.768;2023-08-31T07:29:01;99369.16;;;16.82;64.95
38780;BME280;29273;49.962;9.768;2023-08-31T07:31:30;99372.38;;;16.84;63.52
38780;BME280;29273;49.962;9.768;2023-08-31T07:33:55;99371.06;;;16.87;62.16
38780;BME280;29273;49.962;9.768;2023-08-31T07:36:21;99374.56;;;16.87;63.79
38780;BME280;29273;49.962;9.768;2023-08-31T07:38:46;99385.56;;;16.91;63.36
38780;BME280;29273;49.962;9.768;2023-08-31T07:41:12;99376.22;;;16.93;62.89
38780;BME280;29273;49.962;9.768;2023-08-31T07:43:37;99383.97;;;16.95;61.67
38780;BME280;29273;49.962;9.768;2023-08-31T07:46:04;99387.53;;;17.00;63.02
38780;BME280;29273;49.962;9.768;2023-08-31T07:48:29;99386.19;;;17.03;62.03
38780;BME280;29273;49.962;9.768;2023-08-31T07:50:55;99400.69;;;17.07;62.71
38780;BME280;29273;49.962;9.768;2023-08-31T07:53:20;99401.00;;;17.11;60.74
38780;BME280;29273;49.962;9.768;2023-08-31T07:55:53;99396.50;;;17.22;62.77
38780;BME280;29273;49.962;9.768;2023-08-31T07:58:23;99402.94;;;17.20;61.63
38780;BME280;29273;49.962;9.768;2023-08-31T08:00:52;99397.13;;;17.29;63.01
38780;BME280;29273;49.962;9.768;2023-08-31T08:03:17;99401.66;;;17.28;61.21
38780;BME280;29273;49.962;9.768;2023-08-31T08:05:43;99409.97;;;17.32;61.83
38780;BME280;29273;49.962;9.768;2023-08-31T08:08:09;99405.75;;;17.36;62.32
38780;BME280;29273;49.962;9.768;2023-08-31T08:10:34;99409.50;;;17.40;61.16
38780;BME280;29273;49.962;9.768;2023-08-31T08:13:00;99416.78;;;17.45;61.84
38780;BME280;29273;49.962;9.768;2023-08-31T08:15:26;99409.84;;;17.49;62.39
38780;BME280;29273;49.962;9.768;2023-08-31T08:17:51;99412.56;;;17.54;61.67
38780;BME280;29273;49.962;9.768;2023-08-31T08:20:19;99404.81;;;17.57;61.08
38780;BME280;29273;49.962;9.768;2023-08-31T08:22:44;99414.75;;;17.62;61.73
38780;BME280;29273;49.962;9.768;2023-08-31T08:25:10;99412.13;;;17.67;60.70
38780;BME280;29273;49.962;9.768;2023-08-31T08:27:36;99416.13;;;17.70;60.95
38780;BME280;29273;49.962;9.768;2023-08-31T08:30:03;99419.66;;;17.70;58.80
38780;BME280;29273;49.962;9.768;2023-08-31T08:32:30;99413.75;;;17.73;59.29
38780;BME280;29273;49.962;9.768;2023-08-31T08:34:56;99417.00;;;17.75;59.75
38780;BME280;29273;49.962;9.768;2023-08-31T08:37:21;99414.56;;;17.74;58.60
38780;BME280;29273;49.962;9.768;2023-08-31T08:39:49;99414.88;;;17.83;61.15
38780;BME280;29273;49.962;9.768;2023-08-31T08:42:17;99411.16;;;17.84;61.40
38780;BME280;29273;49.962;9.768;2023-08-31T08:44:43;99410.84;;;17.80;59.16
38780;BME280;29273;49.962;9.768;2023-08-31T08:47:11;99419.50;;;17.87;60.61
38780;BME280;29273;49.962;9.768;2023-08-31T08:49:36;99421.34;;;17.87;59.69
38780;BME280;29273;49.962;9.768;2023-08-31T08:52:03;99426.44;;;17.88;57.18
38780;BME280;29273;49.962;9.768;2023-08-31T08:54:28;99422.47;;;17.91;56.96
38780;BME280;29273;49.962;9.768;2023-08-31T08:56:56;99420.06;;;17.94;57.47
38780;BME280;29273;49.962;9.768;2023-08-31T08:59:22;99420.34;;;17.98;56.87
38780;BME280;29273;49.962;9.768;2023-08-31T09:01:48;99422.25;;;18.03;57.09
38780;BME280;29273;49.962;9.768;2023-08-31T09:04:13;99426.59;;;18.09;56.41
38780;BME280;29273;49.962;9.768;2023-08-31T09:06:39;99434.66;;;18.14;56.70
38780;BME280;29273;49.962;9.768;2023-08-31T09:09:09;99432.53;;;18.26;59.51
38780;BME280;29273;49.962;9.768;2023-08-31T09:11:35;99425.03;;;18.28;58.38
38780;BME280;29273;49.962;9.768;2023-08-31T09:14:14;99425.09;;;18.34;57.02
38780;BME280;29273;49.962;9.768;2023-08-31T09:16:44;99431.53;;;18.38;58.64
38780;BME280;29273;49.962;9.768;2023-08-31T09:19:20;99431.53;;;18.43;59.82
38780;BME280;29273;49.962;9.768;2023-08-31T09:21:47;99439.06;;;18.41;59.34
38780;BME280;29273;49.962;9.768;2023-08-31T09:24:13;99435.84;;;18.44;57.66
38780;BME280;29273;49.962;9.768;2023-08-31T09:26:48;99429.97;;;18.47;57.56
38780;BME280;29273;49.962;9.768;2023-08-31T09:29:17;99430.78;;;18.53;58.49
38780;BME280;29273;49.962;9.768;2023-08-31T09:31:43;99432.69;;;18.57;58.15
38780;BME280;29273;49.962;9.768;2023-08-31T09:34:09;99428.38;;;18.61;55.74
38780;BME280;29273;49.962;9.768;2023-08-31T09:36:36;99435.13;;;18.69;57.40
38780;BME280;29273;49.962;9.768;2023-08-31T09:39:02;99438.88;;;18.68;54.19
38780;BME280;29273;49.962;9.768;2023-08-31T09:41:27;99439.97;;;18.77;55.96
38780;BME280;29273;49.962;9.768;2023-08-31T09:43:53;99444.00;;;18.80;55.05
38780;BME280;29273;49.962;9.768;2023-08-31T09:46:19;99440.56;;;18.90;57.24
38780;BME280;29273;49.962;9.768;2023-08-31T09:48:47;99431.19;;;18.92;57.68
38780;BME280;29273;49.962;9.768;2023-08-31T09:51:14;99439.78;;;18.99;58.20
38780;BME280;29273;49.962;9.768;2023-08-31T09:53:42;99450.25;;;19.01;56.30
38780;BME280;29273;49.962;9.768;2023-08-31T09:56:11;99443.56;;;19.14;58.40
38780;BME280;29273;49.962;9.768;2023-08-31T09:58:38;99444.34;;;19.14;55.02
38780;BME280;29273;49.962;9.768;2023-08-31T10:01:05;99436.56;;;19.18;53.57
38780;BME280;29273;49.962;9.768;2023-08-31T10:03:31;99443.81;;;19.22;53.30
38780;BME280;29273;49.962;9.768;2023-08-31T10:05:57;99435.78;;;19.22;52.56
38780;BME280;29273;49.962;9.768;2023-08-31T10:08:24;99441.13;;;19.28;53.69
38780;BME280;29273;49.962;9.768;2023-08-31T10:10:52;99447.31;;;19.33;55.23
38780;BME280;29273;49.962;9.768;2023-08-31T10:13:19;99456.19;;;19.39;55.68
38780;BME280;29273;49.962;9.768;2023-08-31T10:15:48;99460.75;;;19.44;56.78
38780;BME280;29273;49.962;9.768;2023-08-31T10:18:14;99453.75;;;19.42;56.44
38780;BME280;29273;49.962;9.768;2023-08-31T10:20:42;99452.97;;;19.47;56.54
38780;BME280;29273;49.962;9.768;2023-08-31T10:23:09;99461.00;;;19.47;53.92
38780;BME280;29273;49.962;9.768;2023-08-31T10:28:18;99461.53;;;19.54;57.63
38780;BME280;29273;49.962;9.768;2023-08-31T10:31:10;99469.34;;;19.56;59.93
38780;BME280;29273;49.962;9.768;2023-08-31T10:36:55;99458.84;;;19.65;59.40
38780;BME280;29273;49.962;9.768;2023-08-31T10:39:19;99466.66;;;19.61;54.54
38780;BME280;29273;49.962;9.768;2023-08-31T10:41:55;99467.19;;;19.73;58.79
38780;BME280;29273;49.962;9.768;2023-08-31T10:44:25;99470.13;;;19.72;56.01
38780;BME280;29273;49.962;9.768;2023-08-31T10:46:52;99462.88;;;19.72;53.47
38780;BME280;29273;49.962;9.768;2023-08-31T10:49:19;99460.47;;;19.76;54.98
38780;BME280;29273;49.962;9.768;2023-08-31T10:51:56;99473.63;;;19.83;57.35
38780;BME280;29273;49.962;9.768;2023-08-31T10:54:23;99466.13;;;19.80;54.52
38780;BME280;29273;49.962;9.768;2023-08-31T10:59:17;99468.53;;;19.86;54.14
38780;BME280;29273;49.962;9.768;2023-08-31T11:01:56;99466.38;;;19.99;58.63
38780;BME280;29273;49.962;9.768;2023-08-31T11:04:23;99465.28;;;19.94;51.88
38780;BME280;29273;49.962;9.768;2023-08-31T11:07:04;99464.75;;;19.98;52.36
38780;BME280;29273;49.962;9.768;2023-08-31T11:09:33;99466.91;;;20.01;52.55
38780;BME280;29273;49.962;9.768;2023-08-31T11:11:59;99466.63;;;20.02;51.17
38780;BME280;29273;49.962;9.768;2023-08-31T11:14:25;99470.91;;;20.03;52.73
38780;BME280;29273;49.962;9.768;2023-08-31T11:16:51;99459.09;;;20.04;52.34
38780;BME280;29273;49.962;9.768;2023-08-31T11:19:17;99462.03;;;20.08;53.04
38780;BME280;29273;49.962;9.768;2023-08-31T11:21:43;99457.75;;;20.07;51.41
38780;BME280;29273;49.962;9.768;2023-08-31T11:24:09;99457.44;;;20.08;51.21
38780;BME280;29273;49.962;9.768;2023-08-31T11:26:34;99459.59;;;20.11;52.34
38780;BME280;29273;49.962;9.768;2023-08-31T11:29:00;99460.94;;;20.14;51.13
38780;BME280;29273;49.962;9.768;2023-08-31T11:31:26;99448.03;;;20.16;51.68
38780;BME280;29273;49.962;9.768;2023-08-31T11:33:54;99448.53;;;20.23;53.91
38780;BME280;29273;49.962;9.768;2023-08-31T11:36:21;99451.53;;;20.22;51.61
38780;BME280;29273;49.962;9.768;2023-08-31T11:38:50;99460.88;;;20.29;53.98
38780;BME280;29273;49.962;9.768;2023-08-31T11:41:16;99460.38;;;20.27;52.36
38780;BME280;29273;49.962;9.768;2023-08-31T11:43:42;99461.44;;;20.26;52.60
38780;BME280;29273;49.962;9.768;2023-08-31T11:46:08;99463.31;;;20.26;52.05
38780;BME280;29273;49.962;9.768;2023-08-31T11:48:34;99460.13;;;20.24;52.06
38780;BME280;29273;49.962;9.768;2023-08-31T11:51:00;99464.66;;;20.23;50.87
38780;BME280;29273;49.962;9.768;2023-08-31T11:53:27;99464.97;;;20.22;50.27
38780;BME280;29273;49.962;9.768;2023-08-31T11:55:53;99472.47;;;20.20;50.22
38780;BME280;29273;49.962;9.768;2023-08-31T11:58:19;99463.63;;;20.19;50.79
38780;BME280;29273;49.962;9.768;2023-08-31T12:00:54;99467.38;;;20.18;50.76
38780;BME280;29273;49.962;9.768;2023-08-31T12:03:19;99469.81;;;20.14;51.47
38780;BME280;29273;49.962;9.768;2023-08-31T12:05:46;99471.97;;;20.12;50.80
38780;BME280;29273;49.962;9.768;2023-08-31T12:08:12;99477.63;;;20.11;50.10
38780;BME280;29273;49.962;9.768;2023-08-31T12:10:41;99476.81;;;20.15;52.56
38780;BME280;29273;49.962;9.768;2023-08-31T12:13:11;99476.28;;;20.13;53.11
38780;BME280;29273;49.962;9.768;2023-08-31T12:15:40;99477.09;;;20.09;51.22
38780;BME280;29273;49.962;9.768;2023-08-31T12:20:34;99469.28;;;20.12;51.80
38780;BME280;29273;49.962;9.768;2023-08-31T12:23:07;99464.94;;;20.17;52.52
38780;BME280;29273;49.962;9.768;2023-08-31T12:25:33;99466.03;;;20.21;52.34
38780;BME280;29273;49.962;9.768;2023-08-31T12:27:58;99464.13;;;20.26;51.34
38780;BME280;29273;49.962;9.768;2023-08-31T12:30:24;99469.22;;;20.33;53.03
38780;BME280;29273;49.962;9.768;2023-08-31T12:32:51;99463.53;;;20.40;50.60
38780;BME280;29273;49.962;9.768;2023-08-31T12:35:17;99459.22;;;20.44;48.55
38780;BME280;29273;49.962;9.768;2023-08-31T12:37:43;99468.59;;;20.51;50.22
38780;BME280;29273;49.962;9.768;2023-08-31T12:40:09;99453.53;;;20.56;50.98
38780;BME280;29273;49.962;9.768;2023-08-31T12:42:35;99450.28;;;20.64;50.78
38780;BME280;29273;49.962;9.768;2023-08-31T12:45:01;99452.16;;;20.68;50.70
38780;BME280;29273;49.962;9.768;2023-08-31T12:47:26;99449.44;;;20.74;51.82
38780;BME280;29273;49.962;9.768;2023-08-31T12:49:52;99446.75;;;20.74;50.66
38780;BME280;29273;49.962;9.768;2023-08-31T12:52:17;99438.91;;;20.77;50.46
38780;BME280;29273;49.962;9.768;2023-08-31T12:54:43;99443.19;;;20.78;50.71
38780;BME280;29273;49.962;9.768;2023-08-31T12:57:08;99437.53;;;20.80;48.70
38780;BME280;29273;49.962;9.768;2023-08-31T12:59:34;99427.84;;;20.84;48.88
38780;BME280;29273;49.962;9.768;2023-08-31T13:01:59;99435.09;;;20.88;49.71
38780;BME280;29273;49.962;9.768;2023-08-31T13:04:25;99436.91;;;20.93;50.30
38780;BME280;29273;49.962;9.768;2023-08-31T13:06:50;99426.97;;;20.94;46.43
38780;BME280;29273;49.962;9.768;2023-08-31T13:09:16;99440.13;;;21.00;47.65
38780;BME280;29273;49.962;9.768;2023-08-31T13:11:41;99441.41;;;21.08;47.42
38780;BME280;29273;49.962;9.768;2023-08-31T13:14:07;99439.75;;;21.12;47.12